Time;durP1;ratioP1;P1;durP2;ratioP2;P2;SDS_P1;SDS_P2;PMS_P1;PMS_P2;Temp;Humidity;BMP_temperature;BMP_pressure;BME280_temperature;BME280_humidity;BME280_pressure;Samples;Min_cycle;Max_cycle;Signal;HPM_P1;HPM_P2
2021/01/02 00:00:00;;;;;;;17.05;6.38;;;4.60;99.90;;;;;;5020900;28;20418;-63
2021/01/02 00:02:44;;;;;;;18.25;6.95;;;4.60;99.90;;;;;;5032073;28;20034;-63
2021/01/02 00:05:14;;;;;;;20.95;7.82;;;4.70;99.90;;;;;;5014228;28;20042;-64
2021/01/02 00:08:02;;;;;;;20.67;8.20;;;4.60;99.90;;;;;;5014130;28;20034;-63
2021/01/02 00:10:32;;;;;;;17.08;7.05;;;4.60;99.90;;;;;;5014443;28;20045;-63
2021/01/02 00:13:01;;;;;;;;;;;4.70;99.90;;;;;;5020482;28;20115;-63
2021/01/02 00:15:50;;;;;;;19.38;6.80;;;4.70;99.90;;;;;;5019412;28;19919;-62
2021/01/02 00:18:36;;;;;;;17.95;7.05;;;4.70;99.90;;;;;;5019302;28;20042;-62
2021/01/02 00:21:25;;;;;;;23.00;7.40;;;4.70;99.90;;;;;;5021566;28;20406;-63
2021/01/02 00:24:00;;;;;;;21.17;8.98;;;4.70;99.90;;;;;;5015203;28;20117;-62
2021/01/02 00:26:45;;;;;;;20.70;7.60;;;4.70;99.90;;;;;;5015764;28;20038;-62
2021/01/02 00:29:16;;;;;;;20.67;8.65;;;4.70;99.90;;;;;;5016144;28;20029;-63
2021/01/02 00:31:51;;;;;;;25.23;8.07;;;4.60;99.90;;;;;;5015214;28;20088;-63
2021/01/02 00:34:53;;;;;;;17.70;8.02;;;4.70;99.90;;;;;;5017219;28;20300;-65
2021/01/02 00:37:22;;;;;;;16.45;6.88;;;4.60;99.90;;;;;;5018377;28;20413;-63
2021/01/02 00:40:08;;;;;;;26.13;8.50;;;4.70;99.90;;;;;;5019130;28;20117;-64
2021/01/02 00:42:34;;;;;;;22.13;8.82;;;4.60;99.90;;;;;;5017297;28;20630;-63
2021/01/02 00:45:02;;;;;;;23.08;8.88;;;4.60;99.90;;;;;;5018523;28;20030;-64
2021/01/02 00:47:32;;;;;;;25.90;9.57;;;4.60;99.90;;;;;;5017747;28;20038;-64
2021/01/02 00:49:59;;;;;;;22.25;8.55;;;4.60;99.90;;;;;;5020101;28;20040;-63
2021/01/02 00:53:01;;;;;;;21.40;8.75;;;4.60;99.90;;;;;;5014261;28;20048;-62
2021/01/02 00:56:07;;;;;;;25.27;8.15;;;4.70;99.90;;;;;;5018728;28;20088;-63
2021/01/02 00:59:11;;;;;;;23.65;7.53;;;4.60;99.90;;;;;;4977592;28;20154;-62
2021/01/02 01:01:44;;;;;;;23.77;8.68;;;4.70;99.90;;;;;;4959723;28;20113;-63
2021/01/02 01:04:37;;;;;;;23.48;8.35;;;4.60;99.90;;;;;;5004746;28;20037;-63
2021/01/02 01:07:03;;;;;;;21.88;8.48;;;4.60;99.90;;;;;;5019503;28;20040;-62
2021/01/02 01:09:36;;;;;;;22.48;7.75;;;4.60;99.90;;;;;;5018504;28;20029;-63
2021/01/02 01:12:02;;;;;;;26.85;9.93;;;4.50;99.90;;;;;;5019637;28;20034;-62
2021/01/02 01:14:30;;;;;;;20.15;8.88;;;4.50;99.90;;;;;;5019642;28;20091;-62
2021/01/02 01:17:02;;;;;;;24.98;9.10;;;4.50;99.90;;;;;;5023002;28;20084;-62
2021/01/02 01:19:32;;;;;;;21.75;9.38;;;4.60;99.90;;;;;;5022236;28;20029;-63
2021/01/02 01:22:01;;;;;;;30.70;10.43;;;4.50;99.90;;;;;;5023077;28;20030;-63
2021/01/02 01:24:36;;;;;;;27.00;8.60;;;4.50;99.90;;;;;;5022123;28;20042;-62
2021/01/02 01:27:20;;;;;;;23.77;10.07;;;4.50;99.90;;;;;;5023864;28;20029;-64
2021/01/02 01:29:48;;;;;;;24.20;10.00;;;4.50;99.90;;;;;;5019577;28;20036;-62
2021/01/02 01:32:22;;;;;;;25.17;9.48;;;4.50;99.90;;;;;;5023732;28;20072;-64
2021/01/02 01:34:55;;;;;;;23.27;9.25;;;4.60;99.90;;;;;;5021714;28;20022;-62
2021/01/02 01:37:24;;;;;;;25.40;10.50;;;4.50;99.90;;;;;;5021073;28;20513;-65
2021/01/02 01:39:52;;;;;;;22.90;9.70;;;4.50;99.90;;;;;;5021911;28;20088;-63
2021/01/02 01:42:19;;;;;;;27.83;9.48;;;4.50;99.90;;;;;;5022833;28;20030;-63
2021/01/02 01:44:55;;;;;;;28.13;10.40;;;4.50;99.90;;;;;;5021665;28;20037;-63
2021/01/02 01:47:23;;;;;;;21.38;9.30;;;4.50;99.90;;;;;;5021215;28;20049;-63
2021/01/02 01:49:51;;;;;;;27.70;9.50;;;4.50;99.90;;;;;;5020592;28;20045;-64
2021/01/02 01:52:36;;;;;;;22.15;8.93;;;4.50;99.90;;;;;;5022342;28;20116;-63
2021/01/02 01:55:04;;;;;;;28.73;9.55;;;4.50;99.90;;;;;;5023134;28;20049;-63
2021/01/02 01:57:30;;;;;;;25.00;9.27;;;4.50;99.90;;;;;;5020538;28;20077;-62
2021/01/02 01:59:58;;;;;;;22.60;8.73;;;4.40;99.90;;;;;;5020701;28;20109;-63
2021/01/02 02:02:39;;;;;;;21.63;8.88;;;4.40;99.90;;;;;;5019983;28;20029;-62
2021/01/02 02:05:07;;;;;;;22.38;9.60;;;4.40;99.90;;;;;;5016222;28;20129;-63
2021/01/02 02:07:53;;;;;;;27.17;10.10;;;4.40;99.90;;;;;;5031319;28;20040;-62
2021/01/02 02:10:30;;;;;;;23.27;9.05;;;4.40;99.90;;;;;;5019678;28;20045;-62
2021/01/02 02:12:58;;;;;;;23.88;8.85;;;4.40;99.90;;;;;;5020667;28;20036;-64
2021/01/02 02:15:29;;;;;;;25.02;8.93;;;4.40;99.90;;;;;;5022171;28;20029;-63
2021/01/02 02:18:05;;;;;;;27.58;9.82;;;4.40;99.90;;;;;;5020573;28;20072;-62
2021/01/02 02:20:32;;;;;;;26.25;9.43;;;4.30;99.90;;;;;;5022912;28;20029;-64
2021/01/02 02:23:06;;;;;;;20.83;8.23;;;4.30;99.90;;;;;;5020342;28;20038;-63
2021/01/02 02:25:59;;;;;;;22.80;9.15;;;4.20;99.90;;;;;;5015770;28;20062;-63
2021/01/02 02:28:45;;;;;;;21.88;9.00;;;4.20;99.90;;;;;;5020878;28;20041;-63
2021/01/02 02:31:15;;;;;;;25.10;9.13;;;4.20;99.90;;;;;;5020321;28;20184;-64
2021/01/02 02:33:58;;;;;;;22.23;9.85;;;4.20;99.90;;;;;;5021053;28;20131;-63
2021/01/02 02:36:25;;;;;;;22.90;9.93;;;4.10;99.90;;;;;;5022195;28;20038;-64
2021/01/02 02:38:53;;;;;;;22.45;9.38;;;4.10;99.90;;;;;;5020744;28;20034;-63
2021/01/02 02:41:23;;;;;;;29.00;9.90;;;4.00;99.90;;;;;;5021305;28;20042;-63
2021/01/02 02:43:53;;;;;;;27.40;10.30;;;4.00;99.90;;;;;;5019603;28;20072;-62
2021/01/02 02:46:22;;;;;;;25.40;8.77;;;4.00;99.90;;;;;;5021286;28;20117;-62
2021/01/02 02:48:52;;;;;;;24.20;10.48;;;4.00;99.90;;;;;;5019750;28;20548;-63
2021/01/02 02:51:19;;;;;;;30.92;10.80;;;4.00;99.90;;;;;;5020844;28;20053;-63
2021/01/02 02:53:48;;;;;;;25.10;9.43;;;4.00;99.90;;;;;;5021339;28;20371;-62
2021/01/02 02:56:13;;;;;;;28.63;9.55;;;4.00;99.90;;;;;;5020274;28;20555;-64
2021/01/02 02:58:39;;;;;;;23.30;10.52;;;4.00;99.90;;;;;;5021888;28;20048;-62
2021/01/02 03:01:04;;;;;;;26.55;11.30;;;4.00;99.90;;;;;;5019455;28;20410;-62
2021/01/02 03:03:30;;;;;;;22.70;9.63;;;3.90;99.90;;;;;;5022907;28;20494;-65
2021/01/02 03:05:56;;;;;;;25.08;9.82;;;4.00;99.90;;;;;;5019505;28;20030;-63
2021/01/02 03:08:22;;;;;;;25.35;9.82;;;4.00;99.90;;;;;;5021306;28;20117;-63
2021/01/02 03:10:48;;;;;;;26.27;9.90;;;4.00;99.90;;;;;;5020218;28;20037;-63
2021/01/02 03:13:14;;;;;;;25.45;9.95;;;4.00;99.90;;;;;;5020429;28;20080;-63
2021/01/02 03:15:42;;;;;;;24.25;9.73;;;4.00;99.90;;;;;;5021209;28;20036;-62
2021/01/02 03:18:10;;;;;;;22.15;9.32;;;4.00;99.90;;;;;;5019728;28;20050;-63
2021/01/02 03:20:37;;;;;;;26.17;11.23;;;4.00;99.90;;;;;;5021278;28;20037;-62
2021/01/02 03:23:03;;;;;;;30.55;10.60;;;4.00;99.90;;;;;;5014325;28;20041;-63
2021/01/02 03:25:29;;;;;;;28.90;10.38;;;4.00;99.90;;;;;;5022099;28;20041;-62
2021/01/02 03:27:55;;;;;;;27.98;10.18;;;4.00;99.90;;;;;;5019008;28;20029;-63
2021/01/02 03:30:23;;;;;;;21.65;9.85;;;4.00;99.90;;;;;;5020924;28;20034;-63
2021/01/02 03:32:49;;;;;;;22.10;9.70;;;4.00;99.90;;;;;;5019756;28;20037;-62
2021/01/02 03:35:16;;;;;;;24.13;10.23;;;4.10;99.90;;;;;;5018962;28;20050;-63
2021/01/02 03:37:45;;;;;;;23.23;10.40;;;4.00;99.90;;;;;;5019645;28;20060;-65
2021/01/02 03:40:13;;;;;;;25.70;12.50;;;4.00;99.90;;;;;;5019627;28;20052;-64
2021/01/02 03:42:41;;;;;;;25.77;10.43;;;4.10;99.90;;;;;;5020785;28;20602;-62
2021/01/02 03:45:08;;;;;;;34.22;12.27;;;4.10;99.90;;;;;;5019099;28;20076;-64
2021/01/02 03:47:34;;;;;;;23.05;10.05;;;4.10;99.90;;;;;;5020922;28;20033;-63
2021/01/02 03:49:59;;;;;;;23.88;9.82;;;4.00;99.90;;;;;;5018388;28;20091;-62
2021/01/02 03:52:26;;;;;;;27.83;9.45;;;4.00;99.90;;;;;;5020922;28;20139;-63
2021/01/02 03:54:52;;;;;;;21.98;9.05;;;4.00;99.90;;;;;;5018890;28;20044;-63
2021/01/02 03:57:17;;;;;;;25.35;9.88;;;4.00;99.90;;;;;;5020273;28;20450;-62
2021/01/02 03:59:43;;;;;;;20.85;9.32;;;4.00;99.90;;;;;;5019739;28;20033;-63
2021/01/02 04:02:08;;;;;;;27.67;10.75;;;4.00;99.90;;;;;;5019074;28;20113;-62
2021/01/02 04:04:34;;;;;;;23.05;9.30;;;4.10;99.90;;;;;;5020609;28;20120;-63
2021/01/02 04:07:03;;;;;;;27.90;11.52;;;4.10;99.90;;;;;;5018154;28;20099;-63
2021/01/02 04:09:29;;;;;;;25.00;10.93;;;4.10;99.90;;;;;;5014863;28;20033;-66
2021/01/02 04:11:55;;;;;;;25.85;9.95;;;4.10;99.90;;;;;;5021009;28;20040;-62
2021/01/02 04:14:21;;;;;;;30.08;11.07;;;4.10;99.90;;;;;;5018551;28;20037;-64
2021/01/02 04:16:46;;;;;;;25.33;9.77;;;4.00;99.90;;;;;;5019947;28;20573;-62
2021/01/02 04:19:13;;;;;;;21.83;8.90;;;4.10;99.90;;;;;;5019555;28;20041;-63
2021/01/02 04:21:39;;;;;;;24.15;10.55;;;4.00;99.90;;;;;;5019045;28;20049;-65
2021/01/02 04:24:06;;;;;;;25.83;10.93;;;4.10;99.90;;;;;;5019323;28;20127;-64
2021/01/02 04:26:32;;;;;;;25.98;10.10;;;4.10;99.90;;;;;;5018090;28;20483;-64
2021/01/02 04:28:57;;;;;;;24.70;10.07;;;4.10;99.90;;;;;;5020839;28;20076;-65
2021/01/02 04:31:35;;;;;;;24.50;10.70;;;4.00;99.90;;;;;;5017870;28;20045;-64
2021/01/02 04:34:05;;;;;;;23.25;9.20;;;4.00;99.90;;;;;;5014857;28;20089;-64
2021/01/02 04:36:31;;;;;;;23.95;10.38;;;4.00;99.90;;;;;;5020670;28;20171;-63
2021/01/02 04:38:56;;;;;;;24.15;10.15;;;4.00;99.90;;;;;;5017362;28;20034;-65
2021/01/02 04:41:22;;;;;;;28.25;10.80;;;4.00;99.90;;;;;;5019494;28;20037;-65
2021/01/02 04:43:49;;;;;;;22.02;9.68;;;3.90;99.90;;;;;;5017613;28;20038;-64
2021/01/02 04:46:15;;;;;;;27.77;11.80;;;3.90;99.90;;;;;;5019834;28;20566;-64
2021/01/02 04:48:42;;;;;;;25.00;10.50;;;3.90;99.90;;;;;;5018114;28;20121;-65
2021/01/02 04:51:12;;;;;;;24.40;9.95;;;3.80;99.90;;;;;;5018769;28;20483;-64
2021/01/02 04:53:37;;;;;;;17.40;7.65;;;3.80;99.90;;;;;;5019696;28;20112;-64
2021/01/02 04:56:05;;;;;;;22.65;9.93;;;3.70;99.90;;;;;;5018028;28;20481;-65
2021/01/02 04:58:32;;;;;;;28.08;10.32;;;3.60;99.90;;;;;;5020344;28;20187;-65
2021/01/02 05:00:59;;;;;;;30.17;11.10;;;3.60;99.90;;;;;;5017002;28;20076;-63
2021/01/02 05:03:24;;;;;;;27.10;11.38;;;3.50;99.90;;;;;;5020685;28;20030;-64
2021/01/02 05:05:50;;;;;;;22.42;9.75;;;3.40;99.90;;;;;;5017054;28;20442;-64
2021/01/02 05:08:16;;;;;;;24.55;10.93;;;3.40;99.90;;;;;;5019627;28;20060;-64
2021/01/02 05:10:54;;;;;;;27.73;11.35;;;3.40;99.90;;;;;;5016821;28;20687;-65
2021/01/02 05:13:22;;;;;;;26.88;11.70;;;3.30;99.90;;;;;;5023740;28;20087;-64
2021/01/02 05:15:48;;;;;;;24.23;10.15;;;3.30;99.90;;;;;;5020371;28;20033;-63
2021/01/02 05:18:14;;;;;;;27.35;11.18;;;3.30;99.90;;;;;;5016202;28;20042;-65
2021/01/02 05:20:39;;;;;;;29.73;11.38;;;3.30;99.90;;;;;;5017385;28;20026;-64
2021/01/02 05:23:10;;;;;;;27.33;11.38;;;3.30;99.90;;;;;;5018970;28;20095;-64
2021/01/02 05:25:37;;;;;;;31.13;12.57;;;3.40;99.90;;;;;;5018656;28;20041;-64
2021/01/02 05:28:03;;;;;;;27.08;11.77;;;3.40;99.90;;;;;;5019118;28;20033;-64
2021/01/02 05:30:30;;;;;;;30.33;11.90;;;3.40;99.90;;;;;;5017803;28;20491;-64
2021/01/02 05:32:58;;;;;;;28.35;11.80;;;3.40;99.90;;;;;;5020626;28;20057;-64
2021/01/02 05:35:30;;;;;;;26.23;10.50;;;3.40;99.90;;;;;;5015509;28;20061;-64
2021/01/02 05:38:11;;;;;;;29.27;11.18;;;3.50;99.90;;;;;;5013850;28;20046;-65
2021/01/02 05:40:42;;;;;;;28.75;11.02;;;3.50;99.90;;;;;;5018394;28;20076;-64
2021/01/02 05:43:08;;;;;;;29.63;10.23;;;3.60;99.90;;;;;;5018925;28;20045;-64
2021/01/02 05:45:33;;;;;;;28.38;11.63;;;3.50;99.90;;;;;;5018668;28;20038;-64
2021/01/02 05:48:13;;;;;;;27.65;11.25;;;3.60;99.90;;;;;;5017520;28;20041;-63
2021/01/02 05:50:43;;;;;;;28.85;10.20;;;3.70;99.90;;;;;;5016582;28;20087;-64
2021/01/02 05:53:23;;;;;;;27.45;10.75;;;3.60;99.90;;;;;;5018758;28;20124;-64
2021/01/02 05:56:06;;;;;;;33.10;11.48;;;3.60;99.90;;;;;;5016112;28;20482;-64
2021/01/02 05:58:45;;;;;;;25.52;10.57;;;3.60;99.90;;;;;;5013499;28;20041;-63
2021/01/02 06:01:12;;;;;;;23.55;10.35;;;3.60;99.90;;;;;;5020026;28;20096;-64
2021/01/02 06:03:41;;;;;;;25.70;10.88;;;3.50;99.90;;;;;;5021794;28;20648;-64
2021/01/02 06:06:10;;;;;;;36.35;12.20;;;3.50;99.90;;;;;;5021957;28;20136;-64
2021/01/02 06:08:44;;;;;;;26.42;11.15;;;3.50;99.90;;;;;;5021480;28;20123;-65
2021/01/02 06:11:21;;;;;;;36.92;12.02;;;3.50;99.90;;;;;;5021503;28;20486;-65
2021/01/02 06:13:50;;;;;;;27.42;11.88;;;3.50;99.90;;;;;;5023175;28;20033;-64
2021/01/02 06:16:16;;;;;;;27.75;10.43;;;3.50;99.90;;;;;;5019254;28;20105;-64
2021/01/02 06:18:43;;;;;;;29.13;11.57;;;3.40;99.90;;;;;;5022245;28;20594;-64
2021/01/02 06:21:18;;;;;;;30.88;11.27;;;3.50;99.90;;;;;;5021412;28;20124;-65
2021/01/02 06:23:46;;;;;;;26.17;11.40;;;3.50;99.90;;;;;;5022584;28;20040;-65
2021/01/02 06:26:14;;;;;;;25.65;10.27;;;3.50;99.90;;;;;;5019005;28;20038;-65
2021/01/02 06:28:44;;;;;;;26.63;11.70;;;3.50;99.90;;;;;;5022058;28;20038;-65
2021/01/02 06:31:14;;;;;;;26.50;9.43;;;3.50;99.90;;;;;;5019342;28;20030;-65
2021/01/02 06:34:04;;;;;;;26.85;11.45;;;3.60;99.90;;;;;;5020493;28;20117;-64
2021/01/02 06:36:37;;;;;;;27.67;10.85;;;3.60;99.90;;;;;;5018527;28;20391;-64
2021/01/02 06:39:28;;;;;;;29.00;11.35;;;3.60;99.90;;;;;;5021201;28;20099;-65
2021/01/02 06:41:56;;;;;;;32.78;11.68;;;3.60;99.90;;;;;;5016428;28;20053;-64
2021/01/02 06:44:44;;;;;;;27.40;10.68;;;3.60;99.90;;;;;;5023129;28;20044;-65
2021/01/02 06:47:23;;;;;;;30.55;11.80;;;3.60;99.90;;;;;;5021672;28;20038;-65
2021/01/02 06:49:53;;;;;;;30.50;11.25;;;3.60;99.90;;;;;;5015805;28;20030;-64
2021/01/02 06:52:44;;;;;;;28.57;10.47;;;3.70;99.90;;;;;;5015864;28;20030;-64
2021/01/02 06:55:23;;;;;;;32.45;11.77;;;3.70;99.90;;;;;;5033367;28;20287;-65
2021/01/02 06:57:50;;;;;;;29.48;11.82;;;3.60;99.90;;;;;;5013871;28;20034;-66
2021/01/02 07:00:23;;;;;;;35.78;10.65;;;3.70;99.90;;;;;;5022787;28;20617;-64
2021/01/02 07:02:49;;;;;;;26.92;10.80;;;3.70;99.90;;;;;;5015417;28;20402;-66
2021/01/02 07:05:48;;;;;;;31.75;10.60;;;3.70;99.90;;;;;;5021505;28;20033;-64
2021/01/02 07:08:39;;;;;;;34.30;12.65;;;3.70;99.90;;;;;;5021820;28;20099;-65
2021/01/02 07:11:27;;;;;;;37.00;11.38;;;3.80;99.90;;;;;;5018493;28;20033;-64
2021/01/02 07:14:08;;;;;;;31.77;10.15;;;3.70;99.90;;;;;;5016242;28;20025;-64
2021/01/02 07:16:46;;;;;;;29.50;11.80;;;3.70;99.90;;;;;;5020595;28;20132;-64
2021/01/02 07:19:24;;;;;;;25.83;10.93;;;3.80;99.90;;;;;;5020420;28;20056;-64
2021/01/02 07:22:20;;;;;;;33.65;11.27;;;3.80;99.90;;;;;;5014611;28;20268;-64
2021/01/02 07:25:01;;;;;;;31.98;12.02;;;3.70;99.90;;;;;;5014987;28;20038;-64
2021/01/02 07:27:32;;;;;;;32.05;11.02;;;3.70;99.90;;;;;;5017413;28;20502;-64
2021/01/02 07:30:05;;;;;;;33.50;12.48;;;3.80;99.90;;;;;;5019855;28;20037;-65
2021/01/02 07:32:34;;;;;;;35.67;12.85;;;3.80;99.90;;;;;;5016944;28;20077;-64
2021/01/02 07:35:08;;;;;;;38.05;13.43;;;3.80;99.90;;;;;;5021096;28;20038;-65
2021/01/02 07:37:38;;;;;;;32.53;12.45;;;3.80;99.90;;;;;;5018680;28;20511;-63
2021/01/02 07:40:08;;;;;;;44.38;14.13;;;3.80;99.90;;;;;;5018807;28;20037;-64
2021/01/02 07:42:35;;;;;;;48.08;13.50;;;3.90;99.90;;;;;;5019980;28;20083;-64
2021/01/02 07:45:03;;;;;;;54.00;15.27;;;3.80;99.90;;;;;;5018707;28;20052;-64
2021/01/02 07:47:29;;;;;;;57.17;15.60;;;3.80;99.90;;;;;;5019323;28;20398;-64
2021/01/02 07:50:05;;;;;;;44.60;13.27;;;3.80;99.90;;;;;;5021083;28;20022;-64
2021/01/02 07:52:31;;;;;;;51.67;15.10;;;3.80;99.90;;;;;;5019873;28;20022;-64
2021/01/02 07:54:56;;;;;;;47.20;13.77;;;3.80;99.90;;;;;;5015697;28;20060;-65
2021/01/02 07:57:26;;;;;;;53.13;15.00;;;3.80;99.90;;;;;;5012104;28;20034;-64
2021/01/02 07:59:53;;;;;;;51.67;13.20;;;3.90;99.90;;;;;;5018384;28;20136;-64
2021/01/02 08:02:23;;;;;;;48.75;13.90;;;3.90;99.90;;;;;;5019200;28;20026;-65
2021/01/02 08:04:50;;;;;;;47.88;14.80;;;3.90;99.90;;;;;;5016737;28;20041;-64
2021/01/02 08:07:16;;;;;;;54.65;14.32;;;3.90;99.90;;;;;;5021066;28;20025;-61
2021/01/02 08:09:46;;;;;;;43.70;14.48;;;3.90;99.90;;;;;;5017295;28;20022;-64
2021/01/02 08:12:13;;;;;;;42.65;14.15;;;3.90;99.90;;;;;;5013973;28;20034;-65
2021/01/02 08:14:43;;;;;;;51.75;14.98;;;3.90;99.90;;;;;;5020577;28;20026;-63
2021/01/02 08:17:11;;;;;;;46.28;14.40;;;3.90;99.90;;;;;;5016755;28;20029;-64
2021/01/02 08:19:38;;;;;;;51.40;16.08;;;3.90;99.90;;;;;;5020250;28;20103;-63
2021/01/02 08:22:06;;;;;;;44.05;14.43;;;3.90;99.90;;;;;;5016952;28;20048;-64
2021/01/02 08:24:32;;;;;;;45.25;14.60;;;3.90;99.90;;;;;;5019712;28;20052;-64
2021/01/02 08:27:01;;;;;;;43.60;13.98;;;3.90;99.90;;;;;;5016713;28;20038;-64
2021/01/02 08:29:27;;;;;;;41.92;14.85;;;3.90;99.90;;;;;;5016144;28;20057;-65
2021/01/02 08:31:57;;;;;;;40.60;14.75;;;4.00;99.90;;;;;;5019347;28;20033;-64
2021/01/02 08:34:28;;;;;;;48.60;15.55;;;4.00;99.90;;;;;;5018245;28;20096;-64
2021/01/02 08:37:05;;;;;;;47.92;14.27;;;4.00;99.90;;;;;;5017438;28;20048;-65
2021/01/02 08:39:31;;;;;;;50.28;16.90;;;4.00;99.90;;;;;;5016301;28;20402;-64
2021/01/02 08:41:58;;;;;;;44.45;13.10;;;4.10;99.90;;;;;;5015725;28;20034;-65
2021/01/02 08:44:45;;;;;;;51.17;14.00;;;4.10;99.90;;;;;;5013128;28;20033;-64
2021/01/02 08:47:11;;;;;;;49.03;14.75;;;4.20;99.90;;;;;;5018701;28;20448;-63
2021/01/02 08:49:45;;;;;;;52.17;14.70;;;4.10;99.90;;;;;;5017370;28;20036;-64
2021/01/02 08:52:24;;;;;;;46.42;13.57;;;4.10;99.90;;;;;;5015103;28;20538;-64
2021/01/02 08:54:52;;;;;;;33.03;12.82;;;4.20;99.90;;;;;;5031849;28;20058;-64
2021/01/02 08:57:46;;;;;;;42.35;13.60;;;4.20;99.90;;;;;;5015284;28;20537;-65
2021/01/02 09:00:23;;;;;;;36.35;14.07;;;4.20;99.90;;;;;;5014839;28;20042;-65
2021/01/02 09:02:51;;;;;;;39.33;12.98;;;4.30;99.90;;;;;;5010622;28;20040;-65
2021/01/02 09:05:29;;;;;;;36.20;14.48;;;4.30;99.90;;;;;;5016702;28;20033;-64
2021/01/02 09:07:57;;;;;;;39.60;12.60;;;4.30;99.90;;;;;;5016804;28;20037;-64
2021/01/02 09:10:29;;;;;;;45.60;14.38;;;4.30;99.90;;;;;;5019895;28;20064;-65
2021/01/02 09:13:01;;;;;;;32.53;11.48;;;4.30;99.90;;;;;;5018054;28;20030;-67
2021/01/02 09:15:56;;;;;;;30.42;10.77;;;4.30;99.90;;;;;;5020029;28;20112;-65
2021/01/02 09:18:31;;;;;;;28.48;11.65;;;4.30;99.90;;;;;;5017915;28;20511;-64
2021/01/02 09:21:06;;;;;;;31.80;11.93;;;4.30;99.90;;;;;;5018373;28;20144;-65
2021/01/02 09:23:37;;;;;;;34.80;11.05;;;4.30;99.90;;;;;;5020172;28;20048;-64
2021/01/02 09:26:24;;;;;;;29.25;10.38;;;4.30;99.90;;;;;;5019348;28;20518;-65
2021/01/02 09:28:51;;;;;;;27.05;11.63;;;4.40;99.90;;;;;;5017322;28;20045;-64
2021/01/02 09:31:18;;;;;;;28.35;10.38;;;4.50;99.90;;;;;;5017278;28;20049;-64
2021/01/02 09:33:43;;;;;;;42.85;12.30;;;4.50;99.90;;;;;;5017551;28;20034;-65
2021/01/02 09:36:15;;;;;;;35.53;11.43;;;4.40;99.90;;;;;;5015993;28;20513;-64
2021/01/02 09:38:44;;;;;;;27.13;10.93;;;4.60;99.90;;;;;;5014027;28;20053;-65
2021/01/02 09:41:11;;;;;;;26.80;10.98;;;4.60;99.90;;;;;;5013725;28;20057;-64
2021/01/02 09:43:37;;;;;;;29.33;9.90;;;4.60;99.90;;;;;;5015424;28;20033;-64
2021/01/02 09:46:03;;;;;;;23.80;10.02;;;4.60;99.90;;;;;;5022656;28;20029;-63
2021/01/02 09:48:29;;;;;;;30.23;12.27;;;4.70;99.90;;;;;;5019424;28;20038;-67
2021/01/02 09:50:54;;;;;;;36.50;11.65;;;4.60;99.90;;;;;;5022257;28;20037;-65
2021/01/02 09:53:20;;;;;;;30.67;11.55;;;4.60;99.90;;;;;;5021849;28;20037;-64
2021/01/02 09:55:46;;;;;;;29.67;10.80;;;4.60;99.90;;;;;;5016858;28;20088;-64
2021/01/02 09:58:12;;;;;;;26.85;10.65;;;4.60;99.90;;;;;;5021994;28;20037;-64
2021/01/02 10:00:39;;;;;;;27.65;9.75;;;4.60;99.90;;;;;;5019743;28;20110;-63
2021/01/02 10:03:08;;;;;;;30.13;11.48;;;4.60;99.90;;;;;;5016584;28;20061;-64
2021/01/02 10:05:34;;;;;;;28.85;11.73;;;4.60;99.90;;;;;;5021626;28;20033;-65
2021/01/02 10:07:59;;;;;;;38.15;12.02;;;4.60;99.90;;;;;;5021008;28;20581;-65
2021/01/02 10:10:25;;;;;;;36.67;11.88;;;4.60;99.90;;;;;;5022789;28;20045;-64
2021/01/02 10:12:50;;;;;;;30.48;12.27;;;4.70;99.90;;;;;;5022083;28;20072;-65
2021/01/02 10:15:18;;;;;;;28.60;11.57;;;4.80;99.90;;;;;;5021527;28;20041;-64
2021/01/02 10:17:43;;;;;;;30.90;10.23;;;4.80;99.90;;;;;;5022525;28;20033;-64
2021/01/02 10:20:11;;;;;;;30.67;11.18;;;4.80;99.90;;;;;;5020487;28;20118;-64
2021/01/02 10:22:37;;;;;;;35.28;12.15;;;4.80;99.90;;;;;;5024047;28;20034;-65
2021/01/02 10:25:04;;;;;;;35.10;11.60;;;4.80;99.90;;;;;;5020207;28;20030;-65
2021/01/02 10:27:30;;;;;;;40.15;12.73;;;4.90;99.90;;;;;;5023454;28;20109;-65
2021/01/02 10:29:56;;;;;;;33.97;11.60;;;4.90;99.90;;;;;;5018744;28;20113;-65
2021/01/02 10:32:24;;;;;;;41.20;13.13;;;4.90;99.90;;;;;;5021351;28;20129;-66
2021/01/02 10:34:50;;;;;;;31.85;11.73;;;4.90;99.90;;;;;;5019295;28;20029;-64
2021/01/02 10:37:18;;;;;;;27.27;10.50;;;5.00;99.90;;;;;;5014833;28;20035;-65
2021/01/02 10:39:43;;;;;;;31.90;11.35;;;5.00;99.90;;;;;;5021820;28;20664;-65
2021/01/02 10:42:11;;;;;;;25.48;10.32;;;5.10;99.90;;;;;;5019460;28;20117;-65
2021/01/02 10:44:37;;;;;;;31.50;10.50;;;5.10;99.90;;;;;;5021648;28;20120;-64
2021/01/02 10:47:03;;;;;;;28.98;10.63;;;5.10;99.90;;;;;;5015393;28;20575;-65
2021/01/02 10:49:29;;;;;;;45.67;10.10;;;5.20;99.90;;;;;;5019257;28;20033;-63
2021/01/02 10:51:55;;;;;;;24.10;8.88;;;5.20;99.90;;;;;;5020864;28;20517;-64
2021/01/02 10:54:22;;;;;;;42.78;10.30;;;5.10;99.90;;;;;;5017660;28;20029;-64
2021/01/02 10:56:49;;;;;;;32.28;10.60;;;5.10;99.90;;;;;;5018282;28;20387;-64
2021/01/02 10:59:16;;;;;;;64.55;11.40;;;5.00;99.90;;;;;;5020393;28;20060;-64
2021/01/02 11:01:43;;;;;;;46.00;11.75;;;4.90;99.90;;;;;;5013426;28;20120;-65
2021/01/02 11:04:09;;;;;;;41.75;11.65;;;4.90;99.90;;;;;;5014523;28;20395;-65
2021/01/02 11:06:39;;;;;;;76.60;13.63;;;4.90;99.90;;;;;;5012093;28;20048;-65
2021/01/02 11:09:07;;;;;;;35.67;11.23;;;4.90;99.90;;;;;;5012310;28;20140;-65
2021/01/02 11:11:33;;;;;;;58.17;12.48;;;5.00;99.90;;;;;;5014798;28;20036;-63
2021/01/02 11:13:59;;;;;;;50.92;13.65;;;5.00;99.90;;;;;;5014304;28;20034;-64
2021/01/02 11:16:37;;;;;;;37.65;11.75;;;4.90;99.90;;;;;;5016510;28;20045;-63
2021/01/02 11:19:17;;;;;;;43.08;12.15;;;4.90;99.90;;;;;;5014004;28;20045;-64
2021/01/02 11:21:45;;;;;;;31.02;11.35;;;4.90;99.90;;;;;;5015053;28;20502;-64
2021/01/02 11:24:11;;;;;;;34.60;11.18;;;5.00;99.90;;;;;;5013963;28;20509;-64
2021/01/02 11:26:36;;;;;;;33.63;10.75;;;5.00;99.90;;;;;;5014714;28;20049;-64
2021/01/02 11:29:03;;;;;;;32.58;11.75;;;5.00;99.90;;;;;;5013919;28;20045;-64
2021/01/02 11:31:35;;;;;;;25.98;9.88;;;5.00;99.90;;;;;;5016237;28;20116;-63
2021/01/02 11:34:01;;;;;;;29.08;10.55;;;5.00;99.90;;;;;;5014415;28;20514;-64
2021/01/02 11:36:27;;;;;;;26.13;10.68;;;5.10;99.90;;;;;;5032757;28;20040;-64
2021/01/02 11:38:54;;;;;;;29.10;11.10;;;5.20;99.90;;;;;;5015618;28;20453;-65
2021/01/02 11:41:28;;;;;;;28.48;10.20;;;5.20;99.90;;;;;;5016610;28;20117;-63
2021/01/02 11:43:53;;;;;;;27.48;11.32;;;5.20;99.90;;;;;;5016260;28;20166;-64
2021/01/02 11:46:30;;;;;;;27.35;10.15;;;5.20;99.90;;;;;;5018637;28;20034;-65
2021/01/02 11:48:55;;;;;;;26.27;9.85;;;5.20;99.90;;;;;;5016980;28;20034;-63
2021/01/02 11:51:21;;;;;;;25.63;9.05;;;5.20;99.90;;;;;;5018934;28;20095;-64
2021/01/02 11:53:47;;;;;;;25.90;9.95;;;5.20;99.90;;;;;;5018056;28;20165;-64
2021/01/02 11:56:12;;;;;;;27.42;10.13;;;5.20;99.90;;;;;;5017197;28;20054;-63
2021/01/02 11:58:38;;;;;;;24.20;9.73;;;5.20;99.90;;;;;;5016559;28;20160;-64
2021/01/02 12:01:03;;;;;;;27.67;10.38;;;5.20;99.90;;;;;;5016996;28;20622;-64
2021/01/02 12:03:29;;;;;;;25.75;10.70;;;5.30;99.90;;;;;;5019600;28;20128;-64
2021/01/02 12:05:54;;;;;;;27.23;11.05;;;5.30;99.90;;;;;;5018715;28;20098;-64
2021/01/02 12:08:20;;;;;;;25.35;11.45;;;5.30;99.90;;;;;;5019249;28;20030;-65
2021/01/02 12:10:46;;;;;;;24.08;9.75;;;5.30;99.90;;;;;;5018989;28;20109;-64
2021/01/02 12:13:12;;;;;;;22.10;8.95;;;5.20;99.90;;;;;;5017098;28;20116;-65
2021/01/02 12:15:37;;;;;;;22.73;9.88;;;5.30;99.90;;;;;;5017220;28;20042;-65
2021/01/02 12:18:03;;;;;;;27.67;8.40;;;5.30;99.90;;;;;;5011087;28;20029;-64
2021/01/02 12:20:28;;;;;;;27.30;9.85;;;5.30;99.90;;;;;;5012220;28;20113;-64
2021/01/02 12:22:54;;;;;;;24.67;10.75;;;5.30;99.90;;;;;;5013878;28;20033;-65
2021/01/02 12:25:21;;;;;;;25.08;10.25;;;5.30;99.90;;;;;;5012531;28;20037;-65
2021/01/02 12:27:46;;;;;;;27.63;9.52;;;5.30;99.90;;;;;;5016887;28;20064;-64
2021/01/02 12:30:13;;;;;;;27.02;11.45;;;5.40;99.90;;;;;;5018898;28;20042;-65
2021/01/02 12:32:38;;;;;;;24.80;9.45;;;5.30;99.90;;;;;;5018326;28;20037;-64
2021/01/02 12:35:04;;;;;;;29.10;11.35;;;5.30;99.90;;;;;;5016276;28;20472;-63
2021/01/02 12:37:30;;;;;;;25.77;10.40;;;5.30;99.90;;;;;;5018664;28;20041;-64
2021/01/02 12:39:55;;;;;;;27.33;10.52;;;5.40;99.90;;;;;;5010759;28;20036;-67
2021/01/02 12:42:21;;;;;;;31.45;10.68;;;5.30;99.90;;;;;;5018632;28;20036;-64
2021/01/02 12:44:49;;;;;;;36.78;12.80;;;5.30;99.90;;;;;;5017998;28;20112;-63
2021/01/02 12:47:17;;;;;;;37.35;12.75;;;5.20;99.90;;;;;;5016353;28;20038;-65
2021/01/02 12:49:45;;;;;;;35.35;12.18;;;5.20;99.90;;;;;;5018965;28;20061;-63
2021/01/02 12:52:11;;;;;;;28.55;10.73;;;5.10;99.90;;;;;;5018100;28;20121;-64
2021/01/02 12:54:37;;;;;;;32.67;11.20;;;5.10;99.90;;;;;;5018276;28;20026;-64
2021/01/02 12:57:04;;;;;;;35.42;11.57;;;5.10;99.90;;;;;;5017611;28;20026;-63